Airfield :
LOGIN :

Register | Disclaimer

   EN    FR    IT 

 










Legend :    VFR   Marginal VFR   IFR   Intensive IFR   Very Intensive IFR
Visi :
Ceiling :
>= 8 km
>= 3000ft
5 to 8 km
1000 to 3000 ft
1500m to 5 km
500 to 1000 ft
800 to 1500m
200 to 500 ft
< 800m
< 200 ft
Symbols :   Thunderstorms  Fog  Heavy snow  Heavy precipitations  Wind > 20 kt
SIGMETs :     Misc.  Thunderstorms  Icing  Turbulence  Mountain Waves  Volcanic Ashes






- Airport Elevation : 1079 ft


ETIK - Illesheim Air Base

CURRENT METAR :
  • 071755Z 14003KT 9999 SCT036 15/10 A3014 RMK AO2A SLP210 T01460104 10188 20146 56006

EXPIRED METARs :
  • 071655Z 07003KT 9999 SCT039 15/11 A3014 RMK AO2A SLP210 T01530107 $
  • 071555Z 09004KT 9999 FEW050 SCT100 17/11 A3014 RMK AO2A SLP209 T01670110 $

TAF TAF ETIK
Valid from the 07 at 14:00 until the 08 at 20:00 UTC


071400Z 0714/0820 VRB06KT 9999 SCT045 QNH3015INS
BECMG 0804/0805 VRB06KT 6000 BR OVC030 QNH3008INS
BECMG 0807/0808 27009KT 9999 NSW SCT030 QNH3010INS
BECMG 0811/0812 29009KT 8000 -DZ BR SCT015 BKN025 QNH3014INS
BECMG 0814/0815 32012KT 9999 NSW SCT025 BKN060 QNH3016INS TX18/0814Z TN12/0802Z



MET'MAP, your aeronautical weather chart ! - Copyright ORBIFLY December 2007 - Disclaimer

ORBIFLY MET'MAP TEAM :

Programming & Development : Alexandra Zaïnal
Original concept : Baudouin d'Aumeries
Technical & hardware support : Manuel Goepfert
Assistance : Marc-Olivier Méhu




SOURCES & CREDITS :

   NOAA